sensor_id;sensor_type;location;lat;lon;timestamp;pressure;altitude;pressure_sealevel;temperature;humidity
69574;BME280;62840;52.366;5.980;2023-04-08T00:01:34;102194.91;;;4.69;73.01
69574;BME280;62840;52.366;5.980;2023-04-08T00:03:59;102202.00;;;4.67;73.04
69574;BME280;62840;52.366;5.980;2023-04-08T00:06:25;102201.16;;;4.67;73.19
69574;BME280;62840;52.366;5.980;2023-04-08T00:08:51;102198.56;;;4.65;73.21
69574;BME280;62840;52.366;5.980;2023-04-08T00:11:16;102198.69;;;4.62;73.08
69574;BME280;62840;52.366;5.980;2023-04-08T00:13:42;102200.50;;;4.60;73.20
69574;BME280;62840;52.366;5.980;2023-04-08T00:16:08;102200.63;;;4.57;72.99
69574;BME280;62840;52.366;5.980;2023-04-08T00:18:36;102201.53;;;4.56;73.15
69574;BME280;62840;52.366;5.980;2023-04-08T00:21:02;102204.25;;;4.54;73.30
69574;BME280;62840;52.366;5.980;2023-04-08T00:23:28;102200.72;;;4.54;73.21
69574;BME280;62840;52.366;5.980;2023-04-08T00:25:54;102201.63;;;4.54;73.00
69574;BME280;62840;52.366;5.980;2023-04-08T00:28:20;102209.59;;;4.53;73.17
69574;BME280;62840;52.366;5.980;2023-04-08T00:30:45;102206.13;;;4.51;73.21
69574;BME280;62840;52.366;5.980;2023-04-08T00:33:11;102204.41;;;4.50;73.24
69574;BME280;62840;52.366;5.980;2023-04-08T00:35:39;102202.69;;;4.49;73.20
69574;BME280;62840;52.366;5.980;2023-04-08T00:38:05;102209.78;;;4.47;72.98
69574;BME280;62840;52.366;5.980;2023-04-08T00:40:31;102208.16;;;4.42;72.96
69574;BME280;62840;52.366;5.980;2023-04-08T00:42:57;102213.44;;;4.42;73.14
69574;BME280;62840;52.366;5.980;2023-04-08T00:45:22;102210.88;;;4.41;72.96
69574;BME280;62840;52.366;5.980;2023-04-08T00:47:48;102203.84;;;4.40;73.08
69574;BME280;62840;52.366;5.980;2023-04-08T00:50:14;102218.00;;;4.39;73.03
69574;BME280;62840;52.366;5.980;2023-04-08T00:52:42;102215.41;;;4.37;73.12
69574;BME280;62840;52.366;5.980;2023-04-08T00:55:08;102217.22;;;4.35;73.06
69574;BME280;62840;52.366;5.980;2023-04-08T00:57:34;102215.50;;;4.34;72.98
69574;BME280;62840;52.366;5.980;2023-04-08T01:00:00;102222.63;;;4.32;72.76
69574;BME280;62840;52.366;5.980;2023-04-08T01:02:30;102217.47;;;4.29;72.84
69574;BME280;62840;52.366;5.980;2023-04-08T01:05:10;102219.28;;;4.27;72.96
69574;BME280;62840;52.366;5.980;2023-04-08T01:07:46;102222.13;;;4.21;72.76
69574;BME280;62840;52.366;5.980;2023-04-08T01:10:16;102228.31;;;4.20;73.07
69574;BME280;62840;52.366;5.980;2023-04-08T01:12:53;102230.16;;;4.18;72.99
69574;BME280;62840;52.366;5.980;2023-04-08T01:15:32;102230.28;;;4.13;73.05
69574;BME280;62840;52.366;5.980;2023-04-08T01:18:06;102231.31;;;4.09;73.10
69574;BME280;62840;52.366;5.980;2023-04-08T01:20:40;102232.28;;;4.07;72.90
69574;BME280;62840;52.366;5.980;2023-04-08T01:23:16;102232.38;;;4.04;73.36
69574;BME280;62840;52.366;5.980;2023-04-08T01:25:52;102228.91;;;4.01;73.13
69574;BME280;62840;52.366;5.980;2023-04-08T01:28:23;102234.19;;;4.01;73.10
69574;BME280;62840;52.366;5.980;2023-04-08T01:30:55;102230.84;;;3.96;73.20
69574;BME280;62840;52.366;5.980;2023-04-08T01:33:26;102241.44;;;3.95;73.20
69574;BME280;62840;52.366;5.980;2023-04-08T01:35:56;102245.06;;;3.92;72.99
69574;BME280;62840;52.366;5.980;2023-04-08T01:38:29;102240.75;;;3.90;73.11
69574;BME280;62840;52.366;5.980;2023-04-08T01:41:03;102247.88;;;3.86;73.13
69574;BME280;62840;52.366;5.980;2023-04-08T01:43:32;102245.34;;;3.83;73.12
69574;BME280;62840;52.366;5.980;2023-04-08T01:46:02;102252.44;;;3.81;73.06
69574;BME280;62840;52.366;5.980;2023-04-08T01:48:31;102245.53;;;3.77;73.17
69574;BME280;62840;52.366;5.980;2023-04-08T01:51:01;102252.63;;;3.75;72.96
69574;BME280;62840;52.366;5.980;2023-04-08T01:53:30;102250.94;;;3.74;73.16
69574;BME280;62840;52.366;5.980;2023-04-08T01:56:08;102255.38;;;3.72;73.15
69574;BME280;62840;52.366;5.980;2023-04-08T01:58:47;102261.66;;;3.68;72.98
69574;BME280;62840;52.366;5.980;2023-04-08T02:01:21;102256.50;;;3.65;73.24
69574;BME280;62840;52.366;5.980;2023-04-08T02:03:55;102260.03;;;3.64;73.20
69574;BME280;62840;52.366;5.980;2023-04-08T02:06:29;102253.06;;;3.61;73.33
69574;BME280;62840;52.366;5.980;2023-04-08T02:08:58;102254.97;;;3.57;73.02
69574;BME280;62840;52.366;5.980;2023-04-08T02:11:35;102251.50;;;3.55;73.19
69574;BME280;62840;52.366;5.980;2023-04-08T02:14:01;102246.22;;;3.55;73.14
69574;BME280;62840;52.366;5.980;2023-04-08T02:16:40;102256.00;;;3.52;72.93
69574;BME280;62840;52.366;5.980;2023-04-08T02:19:19;102259.72;;;3.45;72.99
69574;BME280;62840;52.366;5.980;2023-04-08T02:21:56;102257.22;;;3.40;72.94
69574;BME280;62840;52.366;5.980;2023-04-08T02:24:32;102256.38;;;3.40;73.12
69574;BME280;62840;52.366;5.980;2023-04-08T02:27:07;102262.69;;;3.34;73.06
69574;BME280;62840;52.366;5.980;2023-04-08T02:29:44;102257.59;;;3.28;73.03
69574;BME280;62840;52.366;5.980;2023-04-08T02:32:14;102253.38;;;3.22;73.15
69574;BME280;62840;52.366;5.980;2023-04-08T02:34:42;102257.00;;;3.18;73.06
69574;BME280;62840;52.366;5.980;2023-04-08T02:37:09;102262.31;;;3.16;73.12
69574;BME280;62840;52.366;5.980;2023-04-08T02:39:36;102268.59;;;3.12;72.83
69574;BME280;62840;52.366;5.980;2023-04-08T02:42:14;102267.84;;;3.07;72.85
69574;BME280;62840;52.366;5.980;2023-04-08T02:44:57;102260.97;;;3.02;72.83
69574;BME280;62840;52.366;5.980;2023-04-08T02:47:25;102268.09;;;2.98;72.70
69574;BME280;62840;52.366;5.980;2023-04-08T02:49:59;102271.69;;;2.95;72.72
69574;BME280;62840;52.366;5.980;2023-04-08T02:52:35;102272.63;;;2.93;72.87
69574;BME280;62840;52.366;5.980;2023-04-08T02:55:01;102277.09;;;2.91;72.62
69574;BME280;62840;52.366;5.980;2023-04-08T02:57:33;102283.34;;;2.87;72.54
69574;BME280;62840;52.366;5.980;2023-04-08T02:59:59;102281.69;;;2.83;72.76
69574;BME280;62840;52.366;5.980;2023-04-08T03:02:24;102277.44;;;2.79;72.63
69574;BME280;62840;52.366;5.980;2023-04-08T03:04:55;102302.94;;;2.77;72.71
69574;BME280;62840;52.366;5.980;2023-04-08T03:07:21;102281.94;;;2.73;72.61
69574;BME280;62840;52.366;5.980;2023-04-08T03:09:52;102296.13;;;2.69;72.90
69574;BME280;62840;52.366;5.980;2023-04-08T03:12:18;102292.66;;;2.67;72.64
69574;BME280;62840;52.366;5.980;2023-04-08T03:14:47;102289.19;;;2.65;72.97
69574;BME280;62840;52.366;5.980;2023-04-08T03:17:21;102291.91;;;2.62;73.00
69574;BME280;62840;52.366;5.980;2023-04-08T03:19:50;102291.06;;;2.60;72.88
69574;BME280;62840;52.366;5.980;2023-04-08T03:22:19;102292.91;;;2.58;72.88
69574;BME280;62840;52.366;5.980;2023-04-08T03:24:48;102291.16;;;2.57;72.81
69574;BME280;62840;52.366;5.980;2023-04-08T03:27:20;102291.25;;;2.54;72.59
69574;BME280;62840;52.366;5.980;2023-04-08T03:29:50;102293.06;;;2.52;72.77
69574;BME280;62840;52.366;5.980;2023-04-08T03:32:16;102298.47;;;2.46;72.70
69574;BME280;62840;52.366;5.980;2023-04-08T03:34:45;102301.13;;;2.44;72.82
69574;BME280;62840;52.366;5.980;2023-04-08T03:37:11;102299.44;;;2.42;72.94
69574;BME280;62840;52.366;5.980;2023-04-08T03:39:38;102288.09;;;2.40;72.89
69574;BME280;62840;52.366;5.980;2023-04-08T03:42:04;102289.88;;;2.38;72.94
69574;BME280;62840;52.366;5.980;2023-04-08T03:44:31;102300.41;;;2.38;73.08
69574;BME280;62840;52.366;5.980;2023-04-08T03:47:01;102299.56;;;2.37;73.03
69574;BME280;62840;52.366;5.980;2023-04-08T03:49:30;102296.16;;;2.33;72.76
69574;BME280;62840;52.366;5.980;2023-04-08T03:52:03;102307.56;;;2.32;72.79
69574;BME280;62840;52.366;5.980;2023-04-08T03:54:33;102304.09;;;2.30;72.71
69574;BME280;62840;52.366;5.980;2023-04-08T03:57:02;102307.66;;;2.29;72.92
69574;BME280;62840;52.366;5.980;2023-04-08T03:59:31;102304.19;;;2.27;72.83
69574;BME280;62840;52.366;5.980;2023-04-08T04:02:09;102305.13;;;2.25;72.81
69574;BME280;62840;52.366;5.980;2023-04-08T04:04:37;102307.81;;;2.22;73.10
69574;BME280;62840;52.366;5.980;2023-04-08T04:07:04;102304.34;;;2.21;72.82
69574;BME280;62840;52.366;5.980;2023-04-08T04:09:36;102302.63;;;2.20;72.92
69574;BME280;62840;52.366;5.980;2023-04-08T04:12:05;102311.41;;;2.19;72.93
69574;BME280;62840;52.366;5.980;2023-04-08T04:14:33;102306.22;;;2.16;72.90
69574;BME280;62840;52.366;5.980;2023-04-08T04:16:59;102319.47;;;2.13;72.96
69574;BME280;62840;52.366;5.980;2023-04-08T04:19:31;102315.16;;;2.09;73.05
69574;BME280;62840;52.366;5.980;2023-04-08T04:21:59;102316.03;;;2.09;72.83
69574;BME280;62840;52.366;5.980;2023-04-08T04:24:24;102316.06;;;2.08;72.83
69574;BME280;62840;52.366;5.980;2023-04-08T04:26:51;102329.16;;;2.11;72.82
69574;BME280;62840;52.366;5.980;2023-04-08T04:29:18;102332.75;;;2.07;72.91
69574;BME280;62840;52.366;5.980;2023-04-08T04:31:50;102330.16;;;2.05;72.92
69574;BME280;62840;52.366;5.980;2023-04-08T04:34:17;102332.81;;;2.04;72.94
69574;BME280;62840;52.366;5.980;2023-04-08T04:36:55;102326.66;;;2.05;73.00
69574;BME280;62840;52.366;5.980;2023-04-08T04:39:21;102333.69;;;2.04;73.08
69574;BME280;62840;52.366;5.980;2023-04-08T04:41:51;102336.38;;;2.01;73.15
69574;BME280;62840;52.366;5.980;2023-04-08T04:44:17;102339.94;;;1.99;72.94
69574;BME280;62840;52.366;5.980;2023-04-08T04:47:04;102338.22;;;1.98;73.06
69574;BME280;62840;52.366;5.980;2023-04-08T04:49:33;102348.75;;;1.98;73.02
69574;BME280;62840;52.366;5.980;2023-04-08T04:52:05;102350.47;;;1.99;73.04
69574;BME280;62840;52.366;5.980;2023-04-08T04:54:38;102351.41;;;1.96;72.89
69574;BME280;62840;52.366;5.980;2023-04-08T04:57:11;102354.03;;;1.98;72.81
69574;BME280;62840;52.366;5.980;2023-04-08T04:59:40;102352.28;;;1.97;73.01
69574;BME280;62840;52.366;5.980;2023-04-08T05:02:10;102347.00;;;1.97;73.08
69574;BME280;62840;52.366;5.980;2023-04-08T05:04:37;102345.28;;;1.96;73.24
69574;BME280;62840;52.366;5.980;2023-04-08T05:07:06;102355.81;;;1.96;73.13
69574;BME280;62840;52.366;5.980;2023-04-08T05:09:38;102350.56;;;1.96;73.01
69574;BME280;62840;52.366;5.980;2023-04-08T05:12:04;102362.78;;;1.97;73.04
69574;BME280;62840;52.366;5.980;2023-04-08T05:14:30;102361.06;;;1.96;73.18
69574;BME280;62840;52.366;5.980;2023-04-08T05:16:58;102366.34;;;1.96;72.89
69574;BME280;62840;52.366;5.980;2023-04-08T05:19:28;102369.81;;;1.98;72.91
69574;BME280;62840;52.366;5.980;2023-04-08T05:21:57;102369.81;;;1.98;72.89
69574;BME280;62840;52.366;5.980;2023-04-08T05:24:26;102372.44;;;1.98;72.87
69574;BME280;62840;52.366;5.980;2023-04-08T05:27:04;102378.53;;;2.00;73.06
69574;BME280;62840;52.366;5.980;2023-04-08T05:29:32;102375.94;;;1.98;73.18
69574;BME280;62840;52.366;5.980;2023-04-08T05:32:04;102379.38;;;2.00;73.28
69574;BME280;62840;52.366;5.980;2023-04-08T05:34:33;102377.63;;;1.99;73.28
69574;BME280;62840;52.366;5.980;2023-04-08T05:36:58;102378.53;;;2.00;73.22
69574;BME280;62840;52.366;5.980;2023-04-08T05:39:29;102376.75;;;2.02;73.32
69574;BME280;62840;52.366;5.980;2023-04-08T05:41:54;102372.28;;;2.04;73.23
69574;BME280;62840;52.366;5.980;2023-04-08T05:44:22;102375.81;;;2.04;73.43
69574;BME280;62840;52.366;5.980;2023-04-08T05:46:49;102376.66;;;2.05;73.31
69574;BME280;62840;52.366;5.980;2023-04-08T05:49:22;102381.84;;;2.08;73.29
69574;BME280;62840;52.366;5.980;2023-04-08T05:51:58;102379.22;;;2.08;73.56
69574;BME280;62840;52.366;5.980;2023-04-08T05:57:12;102389.59;;;2.14;73.48
69574;BME280;62840;52.366;5.980;2023-04-08T05:59:43;102390.44;;;2.16;73.79
69574;BME280;62840;52.366;5.980;2023-04-08T06:02:13;102385.09;;;2.19;73.48
69574;BME280;62840;52.366;5.980;2023-04-08T06:04:39;102393.81;;;2.21;73.59
69574;BME280;62840;52.366;5.980;2023-04-08T06:07:04;102381.50;;;2.23;73.67
69574;BME280;62840;52.366;5.980;2023-04-08T06:09:34;102379.69;;;2.25;73.72
69574;BME280;62840;52.366;5.980;2023-04-08T06:12:03;102386.63;;;2.29;73.66
69574;BME280;62840;52.366;5.980;2023-04-08T06:14:32;102400.63;;;2.31;73.88
69574;BME280;62840;52.366;5.980;2023-04-08T06:16:59;102400.53;;;2.34;73.81
69574;BME280;62840;52.366;5.980;2023-04-08T06:19:25;102402.22;;;2.39;73.71
69574;BME280;62840;52.366;5.980;2023-04-08T06:21:53;102405.69;;;2.41;73.65
69574;BME280;62840;52.366;5.980;2023-04-08T06:24:19;102409.06;;;2.46;73.91
69574;BME280;62840;52.366;5.980;2023-04-08T06:26:47;102419.50;;;2.49;73.96
69574;BME280;62840;52.366;5.980;2023-04-08T06:29:16;102426.44;;;2.53;73.75
69574;BME280;62840;52.366;5.980;2023-04-08T06:31:43;102427.28;;;2.55;73.74
69574;BME280;62840;52.366;5.980;2023-04-08T06:34:12;102421.13;;;2.56;73.84
69574;BME280;62840;52.366;5.980;2023-04-08T06:36:38;102429.78;;;2.61;74.05
69574;BME280;62840;52.366;5.980;2023-04-08T06:39:04;102431.44;;;2.65;73.95
69574;BME280;62840;52.366;5.980;2023-04-08T06:41:30;102437.47;;;2.69;73.91
69574;BME280;62840;52.366;5.980;2023-04-08T06:43:59;102437.34;;;2.75;73.95
69574;BME280;62840;52.366;5.980;2023-04-08T06:46:27;102443.31;;;2.82;73.95
69574;BME280;62840;52.366;5.980;2023-04-08T06:48:54;102452.88;;;2.86;73.99
69574;BME280;62840;52.366;5.980;2023-04-08T06:51:23;102460.66;;;2.92;74.07
69574;BME280;62840;52.366;5.980;2023-04-08T06:53:49;102467.50;;;2.99;74.19
69574;BME280;62840;52.366;5.980;2023-04-08T06:56:15;102467.28;;;3.08;74.13
69574;BME280;62840;52.366;5.980;2023-04-08T06:58:40;102467.03;;;3.17;73.90
69574;BME280;62840;52.366;5.980;2023-04-08T07:01:06;102459.81;;;3.26;74.16
69574;BME280;62840;52.366;5.980;2023-04-08T07:03:35;102463.94;;;3.34;74.15
69574;BME280;62840;52.366;5.980;2023-04-08T07:06:00;102466.31;;;3.45;74.38
69574;BME280;62840;52.366;5.980;2023-04-08T07:08:30;102470.38;;;3.57;73.98
69574;BME280;62840;52.366;5.980;2023-04-08T07:10:56;102470.94;;;3.68;74.29
69574;BME280;62840;52.366;5.980;2023-04-08T07:13:25;102474.97;;;3.82;74.54
69574;BME280;62840;52.366;5.980;2023-04-08T07:15:51;102480.78;;;3.94;74.51
69574;BME280;62840;52.366;5.980;2023-04-08T07:18:19;102476.09;;;4.04;74.59
69574;BME280;62840;52.366;5.980;2023-04-08T07:20:52;102480.19;;;4.16;74.65
69574;BME280;62840;52.366;5.980;2023-04-08T07:23:21;102475.50;;;4.24;74.37
69574;BME280;62840;52.366;5.980;2023-04-08T07:25:50;102484.97;;;4.31;74.30
69574;BME280;62840;52.366;5.980;2023-04-08T07:28:20;102491.75;;;4.40;74.35
69574;BME280;62840;52.366;5.980;2023-04-08T07:30:49;102489.72;;;4.50;74.21
69574;BME280;62840;52.366;5.980;2023-04-08T07:33:16;102492.13;;;4.57;74.06
69574;BME280;62840;52.366;5.980;2023-04-08T07:35:42;102489.22;;;4.65;74.22
69574;BME280;62840;52.366;5.980;2023-04-08T07:38:12;102503.19;;;4.70;74.28
69574;BME280;62840;52.366;5.980;2023-04-08T07:40:38;102504.72;;;4.77;74.37
69574;BME280;62840;52.366;5.980;2023-04-08T07:43:11;102500.13;;;4.82;74.18
69574;BME280;62840;52.366;5.980;2023-04-08T07:45:37;102492.03;;;4.89;74.11
69574;BME280;62840;52.366;5.980;2023-04-08T07:48:03;102507.72;;;4.95;74.33
69574;BME280;62840;52.366;5.980;2023-04-08T07:50:32;102511.09;;;5.00;74.47
69574;BME280;62840;52.366;5.980;2023-04-08T07:53:00;102509.16;;;5.05;74.25
69574;BME280;62840;52.366;5.980;2023-04-08T07:55:32;102514.34;;;5.08;74.04
69574;BME280;62840;52.366;5.980;2023-04-08T07:58:00;102512.41;;;5.13;74.21
69574;BME280;62840;52.366;5.980;2023-04-08T08:00:25;102512.09;;;5.22;74.18
69574;BME280;62840;52.366;5.980;2023-04-08T08:02:54;102508.25;;;5.33;74.38
69574;BME280;62840;52.366;5.980;2023-04-08T08:05:27;102505.16;;;5.45;74.37
69574;BME280;62840;52.366;5.980;2023-04-08T08:07:53;102502.22;;;5.54;74.65
69574;BME280;62840;52.366;5.980;2023-04-08T08:10:22;102503.63;;;5.64;74.45
69574;BME280;62840;52.366;5.980;2023-04-08T08:12:52;102512.06;;;5.76;74.23
69574;BME280;62840;52.366;5.980;2023-04-08T08:15:24;102513.56;;;5.83;74.23
69574;BME280;62840;52.366;5.980;2023-04-08T08:17:59;102515.91;;;5.91;73.94
69574;BME280;62840;52.366;5.980;2023-04-08T08:20:24;102520.81;;;6.01;73.86
69574;BME280;62840;52.366;5.980;2023-04-08T08:22:50;102525.84;;;6.09;73.75
69574;BME280;62840;52.366;5.980;2023-04-08T08:25:19;102535.34;;;6.15;73.98
69574;BME280;62840;52.366;5.980;2023-04-08T08:27:57;102527.09;;;6.22;74.16
69574;BME280;62840;52.366;5.980;2023-04-08T08:30:23;102524.19;;;6.30;74.19
69574;BME280;62840;52.366;5.980;2023-04-08T08:32:53;102520.38;;;6.37;74.33
69574;BME280;62840;52.366;5.980;2023-04-08T08:35:22;102523.63;;;6.45;74.19
69574;BME280;62840;52.366;5.980;2023-04-08T08:37:47;102527.66;;;6.54;73.90
69574;BME280;62840;52.366;5.980;2023-04-08T08:40:17;102526.59;;;6.60;74.04
69574;BME280;62840;52.366;5.980;2023-04-08T08:42:51;102526.34;;;6.66;74.14
69574;BME280;62840;52.366;5.980;2023-04-08T08:45:20;102529.53;;;6.74;74.31
69574;BME280;62840;52.366;5.980;2023-04-08T08:47:47;102531.09;;;6.80;73.92
69574;BME280;62840;52.366;5.980;2023-04-08T08:50:14;102537.94;;;6.85;73.68
69574;BME280;62840;52.366;5.980;2023-04-08T08:52:47;102530.59;;;6.92;73.92
69574;BME280;62840;52.366;5.980;2023-04-08T08:55:13;102535.63;;;7.00;73.97
69574;BME280;62840;52.366;5.980;2023-04-08T08:57:39;102544.09;;;7.08;73.71
69574;BME280;62840;52.366;5.980;2023-04-08T09:00:06;102547.31;;;7.16;73.48
69574;BME280;62840;52.366;5.980;2023-04-08T09:02:36;102546.09;;;7.25;73.48
69574;BME280;62840;52.366;5.980;2023-04-08T09:05:03;102540.44;;;7.32;73.15
69574;BME280;62840;52.366;5.980;2023-04-08T09:07:31;102541.84;;;7.43;73.34
69574;BME280;62840;52.366;5.980;2023-04-08T09:10:04;102545.97;;;7.50;73.48
69574;BME280;62840;52.366;5.980;2023-04-08T09:12:30;102549.16;;;7.58;73.05
69574;BME280;62840;52.366;5.980;2023-04-08T09:15:03;102536.41;;;7.66;73.24
69574;BME280;62840;52.366;5.980;2023-04-08T09:17:31;102538.66;;;7.75;72.90
69574;BME280;62840;52.366;5.980;2023-04-08T09:20:06;102546.22;;;7.85;72.83
69574;BME280;62840;52.366;5.980;2023-04-08T09:22:34;102537.06;;;7.92;72.05
69574;BME280;62840;52.366;5.980;2023-04-08T09:24:59;102538.53;;;7.99;72.29
69574;BME280;62840;52.366;5.980;2023-04-08T09:27:34;102533.59;;;8.10;72.38
69574;BME280;62840;52.366;5.980;2023-04-08T09:30:12;102522.53;;;8.20;72.26
69574;BME280;62840;52.366;5.980;2023-04-08T09:32:46;102524.91;;;8.26;72.36
69574;BME280;62840;52.366;5.980;2023-04-08T09:35:16;102519.31;;;8.32;72.68
69574;BME280;62840;52.366;5.980;2023-04-08T09:37:42;102529.66;;;8.38;72.57
69574;BME280;62840;52.366;5.980;2023-04-08T09:40:09;102533.84;;;8.44;72.36
69574;BME280;62840;52.366;5.980;2023-04-08T09:42:39;102536.13;;;8.51;72.37
69574;BME280;62840;52.366;5.980;2023-04-08T09:45:09;102534.00;;;8.59;72.20
69574;BME280;62840;52.366;5.980;2023-04-08T09:47:43;102536.34;;;8.66;71.40
69574;BME280;62840;52.366;5.980;2023-04-08T09:50:23;102542.16;;;8.74;71.55
69574;BME280;62840;52.366;5.980;2023-04-08T09:53:00;102540.13;;;8.79;71.54
69574;BME280;62840;52.366;5.980;2023-04-08T09:55:36;102541.72;;;8.83;71.22
69574;BME280;62840;52.366;5.980;2023-04-08T09:58:07;102547.59;;;8.90;70.82
69574;BME280;62840;52.366;5.980;2023-04-08T10:00:45;102547.31;;;8.96;70.53
69574;BME280;62840;52.366;5.980;2023-04-08T10:03:20;102546.16;;;9.01;70.79
69574;BME280;62840;52.366;5.980;2023-04-08T10:05:54;102545.69;;;9.11;71.50
69574;BME280;62840;52.366;5.980;2023-04-08T10:08:21;102543.47;;;9.20;70.84
69574;BME280;62840;52.366;5.980;2023-04-08T10:10:48;102539.50;;;9.29;70.77
69574;BME280;62840;52.366;5.980;2023-04-08T10:13:14;102531.84;;;9.40;70.43
69574;BME280;62840;52.366;5.980;2023-04-08T10:15:41;102533.38;;;9.45;69.96
69574;BME280;62840;52.366;5.980;2023-04-08T10:18:31;102540.47;;;9.46;69.21
69574;BME280;62840;52.366;5.980;2023-04-08T10:21:00;102543.91;;;9.48;69.38
69574;BME280;62840;52.366;5.980;2023-04-08T10:26:34;102541.56;;;9.59;69.35
69574;BME280;62840;52.366;5.980;2023-04-08T10:29:29;102553.63;;;9.66;69.16
69574;BME280;62840;52.366;5.980;2023-04-08T10:31:56;102547.13;;;9.72;68.82
69574;BME280;62840;52.366;5.980;2023-04-08T10:34:23;102541.44;;;9.78;68.84
69574;BME280;62840;52.366;5.980;2023-04-08T10:36:53;102542.00;;;9.84;68.75
69574;BME280;62840;52.366;5.980;2023-04-08T10:39:21;102539.94;;;9.90;68.38
69574;BME280;62840;52.366;5.980;2023-04-08T10:41:48;102541.38;;;9.97;68.57
69574;BME280;62840;52.366;5.980;2023-04-08T10:44:17;102525.19;;;10.00;68.02
69574;BME280;62840;52.366;5.980;2023-04-08T10:46:44;102526.59;;;10.07;68.03
69574;BME280;62840;52.366;5.980;2023-04-08T10:49:11;102520.94;;;10.13;67.81
69574;BME280;62840;52.366;5.980;2023-04-08T10:51:37;102518.88;;;10.18;67.30
69574;BME280;62840;52.366;5.980;2023-04-08T10:54:10;102516.50;;;10.30;67.49
69574;BME280;62840;52.366;5.980;2023-04-08T10:56:43;102523.13;;;10.38;67.73
69574;BME280;62840;52.366;5.980;2023-04-08T10:59:10;102519.09;;;10.47;67.49
69574;BME280;62840;52.366;5.980;2023-04-08T11:01:40;102520.31;;;10.57;67.83
69574;BME280;62840;52.366;5.980;2023-04-08T11:04:13;102517.91;;;10.69;67.40
69574;BME280;62840;52.366;5.980;2023-04-08T11:06:43;102519.28;;;10.76;66.69
69574;BME280;62840;52.366;5.980;2023-04-08T11:09:16;102519.78;;;10.82;66.36
69574;BME280;62840;52.366;5.980;2023-04-08T11:11:43;102525.81;;;10.86;65.16
69574;BME280;62840;52.366;5.980;2023-04-08T11:14:11;102518.59;;;10.88;65.51
69574;BME280;62840;52.366;5.980;2023-04-08T11:16:39;102521.13;;;10.91;65.65
69574;BME280;62840;52.366;5.980;2023-04-08T11:19:05;102525.50;;;10.92;64.92
69574;BME280;62840;52.366;5.980;2023-04-08T11:21:34;102519.31;;;10.92;65.02
69574;BME280;62840;52.366;5.980;2023-04-08T11:24:05;102526.28;;;10.94;65.46
69574;BME280;62840;52.366;5.980;2023-04-08T11:26:37;102526.19;;;10.96;65.57
69574;BME280;62840;52.366;5.980;2023-04-08T11:29:03;102534.78;;;11.01;65.63
69574;BME280;62840;52.366;5.980;2023-04-08T11:31:33;102535.28;;;11.07;65.92
69574;BME280;62840;52.366;5.980;2023-04-08T11:34:00;102538.56;;;11.13;65.76
69574;BME280;62840;52.366;5.980;2023-04-08T11:36:27;102531.25;;;11.16;65.63
69574;BME280;62840;52.366;5.980;2023-04-08T11:38:54;102529.41;;;11.17;65.47
69574;BME280;62840;52.366;5.980;2023-04-08T11:41:23;102519.50;;;11.19;65.53
69574;BME280;62840;52.366;5.980;2023-04-08T11:44:09;102522.97;;;11.21;65.67
69574;BME280;62840;52.366;5.980;2023-04-08T11:46:35;102534.69;;;11.18;65.74
69574;BME280;62840;52.366;5.980;2023-04-08T11:49:05;102526.75;;;11.17;65.42
69574;BME280;62840;52.366;5.980;2023-04-08T11:51:34;102525.97;;;11.15;65.69
69574;BME280;62840;52.366;5.980;2023-04-08T11:54:25;102528.56;;;11.16;65.78
69574;BME280;62840;52.366;5.980;2023-04-08T11:56:51;102524.09;;;11.17;65.81
69574;BME280;62840;52.366;5.980;2023-04-08T11:59:19;102530.97;;;11.21;65.71
69574;BME280;62840;52.366;5.980;2023-04-08T12:01:50;102522.69;;;11.25;65.66
69574;BME280;62840;52.366;5.980;2023-04-08T12:04:18;102524.13;;;11.31;65.19
69574;BME280;62840;52.366;5.980;2023-04-08T12:06:44;102526.63;;;11.34;65.40
69574;BME280;62840;52.366;5.980;2023-04-08T12:09:12;102529.97;;;11.38;65.42
69574;BME280;62840;52.366;5.980;2023-04-08T12:11:38;102520.06;;;11.40;65.22
69574;BME280;62840;52.366;5.980;2023-04-08T12:14:04;102520.91;;;11.40;64.85
69574;BME280;62840;52.366;5.980;2023-04-08T12:16:33;102526.16;;;11.42;65.32
69574;BME280;62840;52.366;5.980;2023-04-08T12:18:58;102523.50;;;11.42;65.23
69574;BME280;62840;52.366;5.980;2023-04-08T12:21:24;102519.63;;;11.47;65.59
69574;BME280;62840;52.366;5.980;2023-04-08T12:23:50;102530.53;;;11.59;64.55
69574;BME280;62840;52.366;5.980;2023-04-08T12:26:16;102526.13;;;11.72;64.91
69574;BME280;62840;52.366;5.980;2023-04-08T12:28:42;102518.44;;;11.82;63.80
69574;BME280;62840;52.366;5.980;2023-04-08T12:31:10;102525.41;;;11.84;63.60
69574;BME280;62840;52.366;5.980;2023-04-08T12:33:41;102518.72;;;11.91;63.44
69574;BME280;62840;52.366;5.980;2023-04-08T12:36:10;102524.47;;;12.00;63.92
69574;BME280;62840;52.366;5.980;2023-04-08T12:38:36;102530.94;;;12.10;64.01
69574;BME280;62840;52.366;5.980;2023-04-08T12:41:03;102527.59;;;12.21;64.50
69574;BME280;62840;52.366;5.980;2023-04-08T12:43:29;102522.38;;;12.33;64.30
69574;BME280;62840;52.366;5.980;2023-04-08T12:45:55;102525.22;;;12.45;64.28
69574;BME280;62840;52.366;5.980;2023-04-08T12:48:26;102527.22;;;12.56;63.93
69574;BME280;62840;52.366;5.980;2023-04-08T12:50:55;102523.19;;;12.63;63.49
69574;BME280;62840;52.366;5.980;2023-04-08T12:53:21;102527.28;;;12.68;63.47
69574;BME280;62840;52.366;5.980;2023-04-08T12:55:48;102520.47;;;12.77;64.03
69574;BME280;62840;52.366;5.980;2023-04-08T12:58:20;102526.28;;;12.84;63.16
69574;BME280;62840;52.366;5.980;2023-04-08T13:00:49;102524.16;;;12.89;62.94
69574;BME280;62840;52.366;5.980;2023-04-08T13:03:15;102524.53;;;12.97;62.72
69574;BME280;62840;52.366;5.980;2023-04-08T13:05:40;102523.38;;;13.01;62.29
69574;BME280;62840;52.366;5.980;2023-04-08T13:08:09;102517.78;;;13.04;62.29
69574;BME280;62840;52.366;5.980;2023-04-08T13:10:38;102516.84;;;13.05;62.52
69574;BME280;62840;52.366;5.980;2023-04-08T13:13:03;102514.19;;;13.05;62.40
69574;BME280;62840;52.366;5.980;2023-04-08T13:15:29;102513.28;;;13.05;62.87